Araucaria, Brazil
Current Conditions -  °F | °C
As of 1:00 PM on Friday 31 Oct 2014 (Local Time) from SBCT Reporting Station
Few Clouds Few Clouds  
Wind Chill: 77°   Ceiling: Unl
Heat Index: 79°   Visibility: 6mi
Dew Point: 63°   Wind: 8mph
Humidity: 61%   Direction: 40°NE
Pressure: 30.03"   Gusts: NA
Location:  25.58°S, 49.4°W
Report Text: SBCT 311500Z 04007KT 9999 FEW040 25/17 Q1017
Loading
Personal Weather Stations






























Interactive Weather Map
Tropical Storm Tracking
New forecast layout! Learn more

10-Day Weather Forecast

Advertisements
Track Severe Weather on mobile